createdAt,value
2018-05-06T05:55:34.838Z,7.24
2018-05-06T05:56:35.239Z,7.28
2018-05-06T05:58:28.195Z,7.43
2018-05-06T05:59:27.714Z,7.40
2018-05-06T06:01:21.188Z,7.52
2018-05-06T06:02:20.635Z,7.48
2018-05-06T06:04:15.643Z,7.64
2018-05-06T06:05:15.175Z,7.92
2018-05-06T06:07:08.543Z,8.05
2018-05-06T06:08:08.114Z,8.12
2018-05-06T06:11:01.851Z,8.38
2018-05-06T06:12:54.513Z,8.34
2018-05-06T06:13:54.027Z,8.47
2018-05-06T06:15:47.471Z,8.61
2018-05-06T06:16:47.041Z,8.70
2018-05-06T06:18:40.506Z,8.84
2018-05-06T06:19:40.051Z,9.04
2018-05-06T06:21:33.413Z,9.46
2018-05-06T06:22:32.924Z,9.43
2018-05-06T06:24:26.430Z,9.51
2018-05-06T06:25:25.956Z,9.48
2018-05-06T06:27:20.824Z,9.53
2018-05-06T06:28:20.879Z,9.51
2018-05-06T06:30:13.924Z,9.64
2018-05-06T06:31:14.249Z,9.74
2018-05-06T06:33:06.735Z,9.86
2018-05-06T06:34:06.284Z,9.96
2018-05-06T06:36:00.234Z,10.05
2018-05-06T06:36:59.730Z,10.12
2018-05-06T06:38:52.682Z,10.32
2018-05-06T06:39:52.664Z,10.52
2018-05-06T06:41:48.265Z,10.59
2018-05-06T06:44:41.703Z,11.51
2018-05-06T06:45:40.748Z,12.83
2018-05-06T06:47:34.231Z,15.68
2018-05-06T06:48:34.696Z,16.33
2018-05-06T06:50:27.733Z,17.04
2018-05-06T06:51:26.772Z,17.30
2018-05-06T06:53:21.746Z,17.86
2018-05-06T06:54:21.282Z,16.42
2018-05-06T06:56:16.397Z,17.07
2018-05-06T06:57:16.819Z,18.05
2018-05-06T06:59:09.308Z,18.63
2018-05-06T07:00:08.856Z,18.35
2018-05-06T07:02:02.419Z,19.48
2018-05-06T07:03:01.955Z,19.73
2018-05-06T07:04:56.040Z,20.67
2018-05-06T07:05:55.992Z,19.78
2018-05-06T07:07:51.032Z,21.17
2018-05-06T07:08:50.494Z,20.50
2018-05-06T07:10:43.618Z,20.89
2018-05-06T07:11:44.058Z,20.80
2018-05-06T07:13:36.703Z,21.79
2018-05-06T07:14:36.663Z,21.71
2018-05-06T07:16:30.237Z,21.54
2018-05-06T07:17:29.313Z,21.49
2018-05-06T07:19:23.286Z,20.91
2018-05-06T07:20:22.352Z,19.66
2018-05-06T07:22:16.600Z,21.10
2018-05-06T07:23:16.243Z,19.73
2018-05-06T07:25:09.348Z,19.80
2018-05-06T07:26:09.834Z,20.74
2018-05-06T07:28:05.441Z,21.91
2018-05-06T07:29:05.423Z,21.69
2018-05-06T07:31:00.022Z,23.66
2018-05-06T07:31:59.984Z,22.61
2018-05-06T07:33:53.394Z,21.44
2018-05-06T07:36:46.594Z,23.42
2018-05-06T07:37:46.631Z,23.04
2018-05-06T07:39:51.972Z,21.56
2018-05-06T07:40:51.796Z,22.54
2018-05-06T07:42:45.447Z,21.32
2018-05-06T07:43:44.884Z,21.32
2018-05-06T07:45:38.057Z,20.05
2018-05-06T07:46:37.540Z,21.04
2018-05-06T07:48:31.019Z,21.92
2018-05-06T07:49:30.593Z,21.69
2018-05-06T07:51:24.119Z,22.10
2018-05-06T07:52:24.083Z,22.10
2018-05-06T07:54:17.326Z,20.74
2018-05-06T07:55:16.758Z,20.95
2018-05-06T07:57:11.171Z,21.14
2018-05-06T07:58:09.990Z,20.92
2018-05-06T08:00:03.453Z,22.00
2018-05-06T08:01:03.628Z,21.56
2018-05-06T08:02:57.117Z,22.95
2018-05-06T08:03:57.282Z,23.05
2018-05-06T08:06:02.298Z,22.92
2018-05-06T08:07:02.282Z,22.88
2018-05-06T08:08:55.345Z,23.23
2018-05-06T08:09:55.292Z,23.32
2018-05-06T08:11:48.374Z,22.79
2018-05-06T08:12:47.970Z,23.85
2018-05-06T08:14:41.546Z,22.88
2018-05-06T08:15:41.021Z,22.12
2018-05-06T08:17:35.945Z,22.45
2018-05-06T08:18:35.465Z,22.33
2018-05-06T08:20:29.937Z,21.59
2018-05-06T08:21:28.938Z,21.67
2018-05-06T08:23:23.997Z,22.64
2018-05-06T08:24:23.552Z,23.09
2018-05-06T08:26:17.072Z,22.42
2018-05-06T08:27:16.638Z,22.62
2018-05-06T08:29:10.058Z,21.92
2018-05-06T08:30:09.685Z,21.54
2018-05-06T08:32:03.233Z,22.33
2018-05-06T08:33:03.149Z,22.06
2018-05-06T08:34:56.569Z,21.54
2018-05-06T08:35:56.221Z,21.68
2018-05-06T08:37:51.095Z,21.90
2018-05-06T08:38:50.673Z,21.82
2018-05-06T08:40:44.101Z,21.99
2018-05-06T08:41:44.152Z,22.54
2018-05-06T08:43:37.256Z,23.10
2018-05-06T08:44:36.803Z,22.65
2018-05-06T08:46:30.292Z,22.40
2018-05-06T08:47:30.246Z,21.98
2018-05-06T08:49:23.348Z,23.01
2018-05-06T08:50:23.325Z,22.94
2018-05-06T08:52:16.391Z,22.75
2018-05-06T08:53:15.983Z,22.28
2018-05-06T08:55:09.552Z,21.22
2018-05-06T08:56:09.358Z,21.82
2018-05-06T08:58:02.560Z,22.70
2018-05-06T08:59:02.104Z,23.36
2018-05-06T09:00:55.562Z,23.32
2018-05-06T09:01:55.160Z,22.73
2018-05-06T09:03:48.638Z,23.17
2018-05-06T09:04:48.204Z,22.65
2018-05-06T09:06:41.755Z,23.35
2018-05-06T09:07:41.271Z,22.70
2018-05-06T09:09:34.738Z,22.36
2018-05-06T09:10:34.752Z,23.16
2018-05-06T09:12:27.890Z,23.27
2018-05-06T09:13:27.859Z,23.36
2018-05-06T09:15:20.847Z,23.01
2018-05-06T09:16:20.721Z,22.46
2018-05-06T09:18:13.953Z,22.73
2018-05-06T09:19:13.824Z,23.47
2018-05-06T09:21:07.989Z,22.86
2018-05-06T09:22:07.389Z,22.09
2018-05-06T09:24:00.557Z,22.91
2018-05-06T09:25:00.082Z,23.20
2018-05-06T09:26:54.977Z,23.09
2018-05-06T09:27:54.926Z,23.23
2018-05-06T09:29:48.079Z,23.17
2018-05-06T09:30:48.081Z,22.98
2018-05-06T09:32:41.148Z,22.47
2018-05-06T09:33:41.134Z,22.76
2018-05-06T09:35:34.214Z,23.20
2018-05-06T09:36:33.733Z,23.05
2018-05-06T09:38:27.214Z,22.67
2018-05-06T09:39:26.839Z,22.83
2018-05-06T09:41:20.832Z,23.28
2018-05-06T09:42:20.741Z,23.02
2018-05-06T09:44:13.852Z,22.20
2018-05-06T09:45:13.860Z,23.05
2018-05-06T09:47:06.952Z,22.65
2018-05-06T09:48:06.576Z,22.28
2018-05-06T09:50:00.018Z,21.88
2018-05-06T09:50:59.885Z,21.62
2018-05-06T09:52:53.016Z,22.30
2018-05-06T09:53:52.604Z,22.35
2018-05-06T09:55:45.994Z,23.38
2018-05-06T09:56:45.576Z,22.95
2018-05-06T09:58:39.003Z,23.35
2018-05-06T09:59:38.905Z,22.03
2018-05-06T10:01:31.994Z,22.43
2018-05-06T10:02:32.010Z,22.14
2018-05-06T10:04:25.121Z,21.92
2018-05-06T10:05:24.634Z,21.61
2018-05-06T10:07:18.110Z,22.30
2018-05-06T10:08:17.665Z,22.55
2018-05-06T10:10:11.083Z,23.13
2018-05-06T10:11:10.641Z,22.65
2018-05-06T10:13:16.360Z,22.12
2018-05-06T10:14:15.873Z,21.16
2018-05-06T10:16:09.457Z,20.88
2018-05-06T10:17:08.968Z,21.53
2018-05-06T10:19:02.422Z,22.82
2018-05-06T10:20:02.366Z,23.43
2018-05-06T10:21:55.559Z,23.00
2018-05-06T10:22:55.029Z,22.90
2018-05-06T10:24:48.472Z,22.10
2018-05-06T10:25:48.548Z,22.51
2018-05-06T10:27:41.687Z,23.07
2018-05-06T10:28:41.202Z,23.28
2018-05-06T10:30:34.656Z,22.97
2018-05-06T10:31:34.218Z,22.20
2018-05-06T10:33:27.715Z,22.22
2018-05-06T10:34:27.268Z,22.57
2018-05-06T10:36:22.201Z,23.43
2018-05-06T10:37:22.195Z,23.48
2018-05-06T10:39:15.295Z,23.57
2018-05-06T10:40:14.792Z,23.98
2018-05-06T10:42:08.286Z,22.14
2018-05-06T10:43:07.922Z,22.76
2018-05-06T10:45:01.331Z,23.07
2018-05-06T10:46:00.933Z,22.12
2018-05-06T10:47:54.283Z,21.98
2018-05-06T10:48:53.912Z,22.27
2018-05-06T10:50:47.434Z,23.25
2018-05-06T10:51:47.303Z,23.16
2018-05-06T10:53:40.464Z,22.95
2018-05-06T10:54:39.983Z,23.46
2018-05-06T10:56:33.417Z,22.21
2018-05-06T10:57:33.744Z,22.94
2018-05-06T10:59:26.425Z,23.10
2018-05-06T11:00:26.072Z,23.05
2018-05-06T11:02:19.534Z,23.32
2018-05-06T11:03:19.366Z,23.04
2018-05-06T11:05:13.472Z,22.09
2018-05-06T11:06:12.605Z,22.75
2018-05-06T11:08:07.590Z,23.19
2018-05-06T11:09:07.573Z,23.13
2018-05-06T11:11:00.504Z,23.35
2018-05-06T11:12:00.079Z,23.33
2018-05-06T11:13:53.997Z,23.91
2018-05-06T11:14:53.619Z,23.80
2018-05-06T11:16:47.504Z,22.46
2018-05-06T11:17:47.167Z,22.46
2018-05-06T11:19:40.543Z,22.49
2018-05-06T11:20:40.100Z,22.79
2018-05-06T11:22:35.150Z,22.88
2018-05-06T11:23:34.742Z,22.72
2018-05-06T11:25:28.626Z,22.42
2018-05-06T11:26:28.160Z,22.91
2018-05-06T11:28:21.595Z,23.16
2018-05-06T11:29:21.271Z,22.46
2018-05-06T11:31:14.698Z,22.65
2018-05-06T11:32:14.319Z,23.12
2018-05-06T11:34:09.252Z,22.15
2018-05-06T11:35:08.852Z,22.72
2018-05-06T11:37:02.365Z,22.83
2018-05-06T11:38:01.895Z,22.62
2018-05-06T11:39:55.818Z,22.35
2018-05-06T11:40:55.420Z,22.40
2018-05-06T11:42:48.908Z,22.30
2018-05-06T11:43:48.432Z,22.85
2018-05-06T11:45:43.367Z,23.50
2018-05-06T11:46:42.929Z,23.69
2018-05-06T11:48:36.433Z,23.36
2018-05-06T11:49:36.012Z,23.48
2018-05-06T11:51:29.474Z,23.32
2018-05-06T11:52:29.082Z,23.12
2018-05-06T11:54:22.919Z,22.57
2018-05-06T11:55:22.867Z,22.39
2018-05-06T11:57:17.787Z,22.65
2018-05-06T11:58:17.775Z,22.36
2018-05-06T12:00:10.556Z,23.07
2018-05-06T12:01:10.054Z,22.94
2018-05-06T12:03:03.497Z,22.73
2018-05-06T12:04:03.444Z,22.72
2018-05-06T12:05:56.620Z,22.09
2018-05-06T12:06:56.155Z,22.30
2018-05-06T12:08:50.033Z,22.27
2018-05-06T12:09:49.654Z,22.58
2018-05-06T12:11:43.149Z,22.30
2018-05-06T12:12:43.061Z,22.55
2018-05-06T12:14:36.681Z,23.25
2018-05-06T12:15:36.273Z,23.00
2018-05-06T12:17:29.891Z,22.88
2018-05-06T12:18:29.372Z,22.94
2018-05-06T12:20:22.799Z,23.00
2018-05-06T12:21:22.730Z,23.04
2018-05-06T12:23:15.873Z,23.09
2018-05-06T12:24:15.472Z,22.65
2018-05-06T12:26:08.910Z,22.57
2018-05-06T12:27:08.895Z,22.65
2018-05-06T12:29:02.545Z,22.68
2018-05-06T12:30:02.034Z,22.65
2018-05-06T12:31:56.980Z,21.96
2018-05-06T12:32:56.563Z,22.24
2018-05-06T12:34:50.084Z,21.71
2018-05-06T12:35:49.931Z,22.09
2018-05-06T12:37:43.092Z,22.92
2018-05-06T12:38:43.061Z,23.15
2018-05-06T12:40:36.184Z,22.92
2018-05-06T12:41:35.712Z,22.73
2018-05-06T12:43:29.225Z,22.42
2018-05-06T12:44:29.155Z,22.95
2018-05-06T12:46:22.282Z,23.17
2018-05-06T12:47:21.866Z,23.12
2018-05-06T12:49:15.291Z,22.75
2018-05-06T12:50:15.313Z,22.30
2018-05-06T12:52:08.919Z,22.22
2018-05-06T12:53:07.933Z,21.40
2018-05-06T12:55:01.403Z,22.20
2018-05-06T12:56:01.038Z,22.61
2018-05-06T12:58:54.077Z,22.94
2018-05-06T13:00:47.517Z,22.45
2018-05-06T13:01:47.489Z,22.12
2018-05-06T13:03:40.672Z,22.70
2018-05-06T13:04:40.183Z,23.02
2018-05-06T13:06:34.136Z,22.40
2018-05-06T13:07:33.746Z,22.21
2018-05-06T13:09:28.796Z,22.80
2018-05-06T13:10:28.334Z,23.00
2018-05-06T13:12:22.360Z,22.62
2018-05-06T13:13:21.932Z,22.94
2018-05-06T13:15:16.931Z,23.72
2018-05-06T13:16:16.489Z,23.31
2018-05-06T13:18:10.433Z,22.64
2018-05-06T13:19:10.453Z,22.75
2018-05-06T13:21:05.125Z,22.72
2018-05-06T13:22:04.696Z,22.37
2018-05-06T13:24:12.931Z,21.96
2018-05-06T13:25:12.464Z,22.37
2018-05-06T13:27:07.583Z,22.33
2018-05-06T13:28:07.074Z,21.92
2018-05-06T13:30:01.048Z,22.09
2018-05-06T13:31:00.671Z,22.35
2018-05-06T13:32:55.671Z,22.55
2018-05-06T13:33:55.203Z,22.60
2018-05-06T13:35:49.242Z,22.80
2018-05-06T13:36:49.083Z,23.01
2018-05-06T13:38:43.819Z,22.46
2018-05-06T13:39:43.376Z,22.67
2018-05-06T13:41:37.421Z,22.68
2018-05-06T13:42:37.293Z,22.10
2018-05-06T13:44:30.458Z,22.46
2018-05-06T13:45:29.996Z,23.02
2018-05-06T13:47:25.022Z,22.47
2018-05-06T13:48:24.955Z,22.07
2018-05-06T13:50:18.727Z,22.21
2018-05-06T13:51:18.460Z,21.72
2018-05-06T13:53:11.633Z,22.36
2018-05-06T13:54:11.254Z,22.37
2018-05-06T13:56:04.704Z,22.06
2018-05-06T13:57:04.291Z,22.37
2018-05-06T13:58:57.780Z,22.77
2018-05-06T13:59:57.349Z,22.31
2018-05-06T14:01:50.879Z,22.31
2018-05-06T14:02:50.406Z,22.58
2018-05-06T14:04:44.389Z,22.77
2018-05-06T14:05:43.426Z,22.83
2018-05-06T14:07:37.471Z,22.46
2018-05-06T14:08:36.953Z,22.46
2018-05-06T14:10:30.011Z,22.47
2018-05-06T14:11:29.891Z,22.45
2018-05-06T14:13:23.603Z,22.25
2018-05-06T14:14:23.150Z,22.30
2018-05-06T14:16:16.620Z,22.28
2018-05-06T14:17:16.273Z,22.45
2018-05-06T14:19:11.212Z,22.06
2018-05-06T14:20:10.773Z,22.35
2018-05-06T14:22:04.318Z,22.42
2018-05-06T14:23:03.830Z,22.67
2018-05-06T14:24:57.313Z,22.86
2018-05-06T14:25:56.949Z,22.80
2018-05-06T14:27:50.444Z,23.01
2018-05-06T14:28:49.979Z,22.94
2018-05-06T14:30:43.467Z,22.43
2018-05-06T14:31:43.042Z,22.75
2018-05-06T14:33:36.466Z,22.70
2018-05-06T14:34:36.032Z,22.55
2018-05-06T14:36:29.455Z,22.47
2018-05-06T14:37:29.076Z,22.68
2018-05-06T14:39:22.390Z,22.98
2018-05-06T14:40:21.958Z,22.94
2018-05-06T14:42:15.476Z,23.16
2018-05-06T14:43:14.969Z,23.17
2018-05-06T14:45:08.412Z,22.49
2018-05-06T14:46:07.997Z,22.73
2018-05-06T14:48:02.028Z,22.61
2018-05-06T14:49:01.116Z,22.31
2018-05-06T14:50:54.491Z,22.45
2018-05-06T14:51:54.095Z,22.40
2018-05-06T14:53:49.021Z,22.02
2018-05-06T14:54:48.625Z,22.45
2018-05-06T14:56:42.085Z,22.72
2018-05-06T14:57:42.040Z,22.75
2018-05-06T14:59:35.161Z,22.70
2018-05-06T15:00:34.677Z,22.64
2018-05-06T15:02:28.172Z,22.49
2018-05-06T15:03:28.197Z,22.54
2018-05-06T15:05:21.281Z,22.83
2018-05-06T15:06:21.205Z,22.60
2018-05-06T15:08:14.235Z,22.24
2018-05-06T15:09:13.851Z,22.15
2018-05-06T15:11:07.408Z,21.94
2018-05-06T15:12:07.317Z,22.37
2018-05-06T15:14:00.442Z,22.35
2018-05-06T15:14:59.992Z,22.45
2018-05-06T15:16:53.443Z,22.02
2018-05-06T15:17:53.046Z,22.09
2018-05-06T15:19:46.498Z,21.98
2018-05-06T15:20:46.063Z,21.83
2018-05-06T15:22:39.591Z,21.90
2018-05-06T15:23:39.180Z,21.92
2018-05-06T15:25:32.616Z,22.10
2018-05-06T15:26:32.199Z,21.92
2018-05-06T15:28:27.195Z,21.68
2018-05-06T15:29:26.714Z,21.90
2018-05-06T15:31:20.203Z,22.15
2018-05-06T15:32:19.760Z,21.82
2018-05-06T15:34:13.807Z,21.69
2018-05-06T15:35:13.208Z,22.03
2018-05-06T15:37:06.352Z,21.69
2018-05-06T15:38:05.865Z,21.77
2018-05-06T15:39:59.390Z,21.56
2018-05-06T15:40:59.415Z,21.62
2018-05-06T15:42:52.915Z,21.88
2018-05-06T15:43:52.881Z,21.92
2018-05-06T15:45:46.577Z,21.47
2018-05-06T15:46:46.034Z,21.50
2018-05-06T15:48:39.551Z,21.38
2018-05-06T15:49:39.586Z,21.46
2018-05-06T15:51:32.606Z,21.67
2018-05-06T15:52:32.192Z,21.58
2018-05-06T15:54:25.628Z,21.25
2018-05-06T15:55:25.544Z,21.24
2018-05-06T15:57:18.769Z,21.25
2018-05-06T15:58:18.287Z,20.99
2018-05-06T16:00:12.340Z,21.16
2018-05-06T16:01:12.259Z,20.91
2018-05-06T16:03:06.785Z,20.52
2018-05-06T16:04:06.347Z,20.41
2018-05-06T16:05:59.811Z,20.32
2018-05-06T16:06:59.756Z,20.26
2018-05-06T16:08:53.473Z,19.77
2018-05-06T16:09:52.929Z,19.59
2018-05-06T16:11:46.934Z,19.59
2018-05-06T16:12:46.525Z,19.61
2018-05-06T16:14:40.640Z,19.71
2018-05-06T16:15:39.618Z,19.74
2018-05-06T16:17:33.672Z,19.50
2018-05-06T16:18:32.668Z,19.65
2018-05-06T16:20:26.192Z,19.74
2018-05-06T16:21:25.703Z,19.63
2018-05-06T16:23:19.597Z,19.62
2018-05-06T16:24:19.159Z,19.76
2018-05-06T16:26:12.237Z,19.94
2018-05-06T16:27:11.842Z,20.03
2018-05-06T16:29:05.347Z,20.14
2018-05-06T16:30:04.906Z,20.11
2018-05-06T16:31:59.411Z,19.84
2018-05-06T16:32:58.858Z,19.74
2018-05-06T16:34:53.428Z,19.66
2018-05-06T16:35:53.057Z,19.58
2018-05-06T16:37:46.486Z,19.33
2018-05-06T16:38:46.017Z,19.26
2018-05-06T16:40:40.572Z,19.28
2018-05-06T16:41:39.569Z,19.25
2018-05-06T16:43:33.133Z,19.31
2018-05-06T16:44:32.684Z,19.31
2018-05-06T16:46:27.647Z,19.13
2018-05-06T16:47:27.230Z,19.02
2018-05-06T16:49:20.792Z,18.98
2018-05-06T16:50:20.340Z,18.88
2018-05-06T16:52:14.330Z,18.90
2018-05-06T16:53:13.338Z,18.84
2018-05-06T16:55:06.866Z,18.66
2018-05-06T16:56:06.774Z,18.78
2018-05-06T16:58:00.059Z,18.87
2018-05-06T16:58:59.428Z,18.70
2018-05-06T17:00:53.020Z,18.80
2018-05-06T17:01:53.500Z,18.90
2018-05-06T17:03:47.574Z,18.62
2018-05-06T17:04:46.076Z,18.48
2018-05-06T17:06:40.116Z,18.37
2018-05-06T17:07:39.450Z,18.26
2018-05-06T17:09:34.088Z,18.17
2018-05-06T17:10:33.714Z,18.20
2018-05-06T17:12:27.151Z,18.51
2018-05-06T17:13:26.642Z,18.45
2018-05-06T17:15:20.031Z,18.33
2018-05-06T17:16:19.992Z,18.44
2018-05-06T17:18:13.076Z,18.35
2018-05-06T17:19:13.034Z,18.21
2018-05-06T17:21:06.121Z,18.08
2018-05-06T17:22:05.995Z,18.07
2018-05-06T17:23:59.025Z,17.90
2018-05-06T17:24:58.888Z,17.90
2018-05-06T17:26:52.365Z,17.87
2018-05-06T17:27:51.964Z,17.84
2018-05-06T17:29:45.441Z,17.63
2018-05-06T17:30:44.923Z,18.03
2018-05-06T17:32:38.314Z,17.90
2018-05-06T17:33:38.241Z,17.90
2018-05-06T17:35:31.310Z,17.84
2018-05-06T17:36:30.772Z,17.63
2018-05-06T17:38:24.344Z,17.40
2018-05-06T17:39:24.258Z,17.26
2018-05-06T17:41:17.282Z,17.01
2018-05-06T17:42:16.808Z,17.01
2018-05-06T17:44:10.204Z,16.70
2018-05-06T17:45:09.755Z,16.79
2018-05-06T17:47:03.271Z,16.89
2018-05-06T17:48:02.723Z,17.26
2018-05-06T17:49:56.224Z,17.31
2018-05-06T17:50:55.772Z,17.28
2018-05-06T17:52:49.297Z,17.08
2018-05-06T17:53:48.695Z,16.89
2018-05-06T17:55:43.751Z,16.98
2018-05-06T17:56:43.260Z,17.23
2018-05-06T17:58:36.695Z,17.08
2018-05-06T17:59:36.204Z,17.21
2018-05-06T18:01:30.263Z,17.03
2018-05-06T18:02:29.261Z,17.06
2018-05-06T18:04:23.263Z,16.83
2018-05-06T18:05:23.113Z,16.67
2018-05-06T18:07:16.160Z,16.53
2018-05-06T18:08:15.673Z,16.49
2018-05-06T18:10:09.603Z,16.45
2018-05-06T18:11:08.618Z,16.48
2018-05-06T18:13:02.057Z,16.21
2018-05-06T18:14:01.552Z,16.02
2018-05-06T18:15:55.048Z,16.11
2018-05-06T18:16:54.589Z,16.15
2018-05-06T18:18:47.904Z,16.00
2018-05-06T18:19:47.570Z,16.02
2018-05-06T18:21:41.031Z,15.76
2018-05-06T18:22:41.305Z,15.75
2018-05-06T18:24:34.599Z,15.67
2018-05-06T18:25:33.991Z,15.71
2018-05-06T18:27:27.495Z,15.71
2018-05-06T18:28:27.637Z,15.62
2018-05-06T18:30:20.989Z,15.36
2018-05-06T18:31:20.912Z,15.29
2018-05-06T18:33:14.109Z,15.11
2018-05-06T18:34:13.582Z,15.07
2018-05-06T18:36:07.082Z,14.88
2018-05-06T18:37:06.676Z,14.88
2018-05-06T18:39:02.119Z,14.60
2018-05-06T18:40:01.217Z,14.58
2018-05-06T18:41:54.648Z,14.69
2018-05-06T18:42:54.184Z,14.43
2018-05-06T18:44:47.790Z,14.29
2018-05-06T18:45:47.690Z,14.18
2018-05-06T18:47:40.711Z,13.87
2018-05-06T18:48:40.306Z,13.75
2018-05-06T18:50:33.802Z,13.52
2018-05-06T18:51:33.444Z,13.62
2018-05-06T18:53:26.785Z,13.44
2018-05-06T18:54:26.403Z,13.32
2018-05-06T18:57:19.584Z,13.29
2018-05-06T18:59:13.029Z,12.89
2018-05-06T19:00:12.937Z,12.75
2018-05-06T19:02:07.487Z,12.83
2018-05-06T19:03:06.988Z,12.79
2018-05-06T19:05:00.498Z,12.31
2018-05-06T19:06:00.043Z,12.34
2018-05-06T19:07:53.619Z,12.28
2018-05-06T19:08:53.536Z,12.20
2018-05-06T19:10:46.641Z,12.16
2018-05-06T19:11:46.640Z,12.02
2018-05-06T19:13:39.665Z,11.91
2018-05-06T19:14:39.582Z,11.83
2018-05-06T19:16:32.641Z,11.88
2018-05-06T19:17:32.578Z,11.65
2018-05-06T19:19:25.769Z,11.40
2018-05-06T19:20:25.700Z,11.46
2018-05-06T19:22:18.781Z,11.57
2018-05-06T19:23:18.714Z,11.61
2018-05-06T19:25:11.807Z,11.42
2018-05-06T19:26:11.435Z,11.25
2018-05-06T19:28:04.916Z,11.19
2018-05-06T19:29:04.393Z,11.21
2018-05-06T19:30:58.041Z,11.27
2018-05-06T19:31:57.472Z,11.37
2018-05-06T19:33:50.992Z,11.37
2018-05-06T19:34:50.927Z,11.33
2018-05-06T19:36:43.967Z,11.21
2018-05-06T19:37:43.579Z,11.09
2018-05-06T19:39:38.482Z,10.79
2018-05-06T19:40:37.986Z,10.63
2018-05-06T19:42:31.520Z,10.27
2018-05-06T19:43:30.927Z,10.14
2018-05-06T19:45:24.309Z,9.99
2018-05-06T19:46:23.895Z,9.99
2018-05-06T19:48:17.334Z,10.09
2018-05-06T19:49:16.796Z,9.99
2018-05-06T19:51:10.372Z,10.38
2018-05-06T19:52:10.355Z,10.34
2018-05-06T19:54:03.328Z,10.26
2018-05-06T19:55:02.849Z,10.29
2018-05-06T19:56:56.212Z,10.25
2018-05-06T19:57:55.781Z,10.25
2018-05-06T19:59:49.269Z,9.93
2018-05-06T20:00:49.136Z,9.89
2018-05-06T20:02:42.129Z,9.46
2018-05-06T20:03:41.724Z,9.48
2018-05-06T20:05:35.105Z,9.50
2018-05-06T20:06:35.092Z,9.50
2018-05-06T20:08:29.629Z,9.43
2018-05-06T20:09:29.161Z,9.33
2018-05-06T20:11:22.615Z,9.21
2018-05-06T20:12:22.518Z,9.23
2018-05-06T20:14:15.478Z,9.18
2018-05-06T20:15:15.103Z,9.39
2018-05-06T20:17:08.476Z,9.57
2018-05-06T20:18:08.050Z,9.71
2018-05-06T20:20:01.468Z,9.47
2018-05-06T20:21:00.924Z,9.57
2018-05-06T20:22:54.416Z,9.51
2018-05-06T20:23:53.921Z,9.28
2018-05-06T20:25:48.949Z,9.11
2018-05-06T20:26:49.084Z,8.92
2018-05-06T20:28:41.853Z,8.99
2018-05-06T20:29:41.375Z,9.33
2018-05-06T20:31:35.200Z,9.69
2018-05-06T20:32:34.291Z,9.74
2018-05-06T20:34:27.824Z,9.74
2018-05-06T20:35:27.236Z,9.64
2018-05-06T20:37:20.734Z,9.39
2018-05-06T20:38:20.721Z,9.48
2018-05-06T20:40:25.839Z,9.47
2018-05-06T20:41:25.332Z,9.26
2018-05-06T20:43:18.772Z,9.18
2018-05-06T20:44:18.284Z,9.11
2018-05-06T20:46:11.766Z,8.87
2018-05-06T20:47:11.645Z,8.79
2018-05-06T20:49:06.261Z,8.73
2018-05-06T20:50:06.694Z,8.61
2018-05-06T20:51:59.192Z,8.43
2018-05-06T20:52:59.182Z,8.45
2018-05-06T20:54:52.103Z,8.65
2018-05-06T20:55:51.706Z,8.56
2018-05-06T20:57:45.126Z,8.47
2018-05-06T20:58:44.632Z,8.56
2018-05-06T21:00:38.015Z,8.53
2018-05-06T21:01:38.005Z,8.25
2018-05-06T21:03:43.236Z,8.12
2018-05-06T21:04:42.717Z,8.10
2018-05-06T21:06:36.169Z,8.02
2018-05-06T21:07:35.643Z,8.29
2018-05-06T21:09:29.145Z,8.52
2018-05-06T21:10:28.694Z,8.44
2018-05-06T21:12:23.632Z,8.70
2018-05-06T21:13:23.102Z,8.62
2018-05-06T21:15:16.583Z,8.74
2018-05-06T21:16:16.507Z,8.63
2018-05-06T21:18:09.531Z,8.28
2018-05-06T21:19:09.548Z,8.16
2018-05-06T21:21:02.447Z,7.97
2018-05-06T21:22:02.001Z,7.82
2018-05-06T21:23:55.408Z,7.79
2018-05-06T21:24:54.956Z,7.75
2018-05-06T21:26:48.395Z,7.72
2018-05-06T21:27:47.985Z,7.74
2018-05-06T21:29:42.912Z,7.86
2018-05-06T21:30:42.405Z,7.92
2018-05-06T21:32:35.861Z,8.05
2018-05-06T21:33:35.319Z,8.01
2018-05-06T21:35:28.887Z,8.18
2018-05-06T21:36:28.821Z,8.12
2018-05-06T21:38:21.831Z,8.02
2018-05-06T21:39:21.801Z,7.97
2018-05-06T21:41:14.789Z,7.87
2018-05-06T21:42:14.309Z,7.93
2018-05-06T21:44:07.803Z,7.82
2018-05-06T21:45:07.670Z,7.77
2018-05-06T21:47:00.667Z,7.71
2018-05-06T21:48:00.669Z,7.69
2018-05-06T21:49:53.643Z,7.74
2018-05-06T21:50:53.198Z,7.61
2018-05-06T21:52:48.157Z,7.45
2018-05-06T21:53:47.673Z,7.31
2018-05-06T21:55:41.135Z,7.32
2018-05-06T21:56:41.038Z,7.40
2018-05-06T21:58:34.533Z,7.43
2018-05-06T21:59:33.540Z,7.43
2018-05-06T22:01:27.056Z,7.40
2018-05-06T22:02:26.555Z,7.28
2018-05-06T22:04:19.942Z,7.46
2018-05-06T22:05:19.530Z,7.60
2018-05-06T22:07:12.939Z,7.57
2018-05-06T22:08:12.458Z,7.57
2018-05-06T22:10:07.357Z,7.52
2018-05-06T22:11:06.946Z,7.49
2018-05-06T22:13:00.380Z,7.30
2018-05-06T22:13:59.923Z,7.16
2018-05-06T22:15:53.307Z,7.02
2018-05-06T22:16:52.782Z,6.95
2018-05-06T22:18:46.311Z,7.07
2018-05-06T22:19:45.778Z,7.12
2018-05-06T22:21:39.517Z,7.07
2018-05-06T22:22:39.705Z,7.03
2018-05-06T22:24:32.660Z,6.92
2018-05-06T22:25:32.493Z,6.84
2018-05-06T22:27:27.186Z,7.06
2018-05-06T22:28:27.080Z,7.10
2018-05-06T22:30:20.124Z,7.06
2018-05-06T22:31:19.150Z,7.02
2018-05-06T22:33:12.596Z,6.99
2018-05-06T22:34:12.159Z,6.71
2018-05-06T22:36:05.565Z,6.87
2018-05-06T22:37:05.486Z,6.84
2018-05-06T22:38:59.023Z,6.81
2018-05-06T22:39:58.019Z,6.80
2018-05-06T22:41:51.478Z,6.73
2018-05-06T22:42:51.042Z,6.70
2018-05-06T22:44:45.876Z,6.66
2018-05-06T22:45:45.459Z,6.71
2018-05-06T22:47:56.206Z,6.71
2018-05-06T22:48:57.050Z,6.52
2018-05-06T22:50:49.172Z,6.41
2018-05-06T22:51:49.515Z,6.43
2018-05-06T22:53:44.033Z,6.44
2018-05-06T22:54:44.403Z,6.48
2018-05-06T22:56:36.993Z,6.31
2018-05-06T22:57:36.956Z,6.30
2018-05-06T22:59:30.091Z,6.25
2018-05-06T23:00:29.481Z,6.19
2018-05-06T23:02:22.914Z,6.01
2018-05-06T23:03:22.489Z,5.93
2018-05-06T23:05:15.830Z,6.21
2018-05-06T23:06:15.418Z,6.22
2018-05-06T23:08:09.330Z,6.28
2018-05-06T23:09:08.347Z,6.06
2018-05-06T23:11:02.317Z,6.12
2018-05-06T23:12:01.317Z,5.96
2018-05-06T23:13:56.824Z,5.83
2018-05-06T23:14:55.885Z,5.76
2018-05-06T23:16:49.517Z,5.65
2018-05-06T23:17:48.789Z,5.57
2018-05-06T23:19:42.228Z,5.67
2018-05-06T23:20:41.756Z,5.68
2018-05-06T23:22:35.188Z,6.00
2018-05-06T23:23:34.727Z,6.12
2018-05-06T23:25:28.124Z,5.83
2018-05-06T23:26:27.755Z,5.96
2018-05-06T23:28:21.077Z,5.91
2018-05-06T23:29:20.716Z,5.89
2018-05-06T23:31:14.108Z,5.89
2018-05-06T23:32:14.007Z,5.90
2018-05-06T23:34:08.551Z,5.56
2018-05-06T23:35:08.991Z,5.49
2018-05-06T23:37:01.486Z,5.43
2018-05-06T23:38:01.074Z,5.61
2018-05-06T23:39:54.444Z,5.64
2018-05-06T23:40:54.397Z,5.65
2018-05-06T23:42:47.472Z,5.46
2018-05-06T23:43:47.959Z,5.40
2018-05-06T23:45:40.366Z,5.57
2018-05-06T23:46:39.951Z,5.56
2018-05-06T23:48:33.821Z,5.67
2018-05-06T23:49:32.898Z,5.48
2018-05-06T23:51:28.337Z,5.35
2018-05-06T23:52:27.329Z,5.31
2018-05-06T23:54:20.775Z,5.09
2018-05-06T23:55:20.337Z,5.22
2018-05-06T23:57:14.256Z,5.04
2018-05-06T23:58:13.717Z,5.06
